KACT/ACT METAR and TAF weather

Enter ICAO airport designator
Station Type Date Time Source
KACT METAR 2021/04/13 21:51 UTC NOAA

KACT 132151Z 36007G16KT 10SM CLR 27/14 A2992 RMK AO2 SLP125 T02720139


Station Type Date Time Source
KACT Decoded METAR 2021/04/13 21:51 UTC NOAA

WACO REGIONAL AIRPORT, TX, United States (KACT) 31-36N 97-13W 151M
Apr 13, 2021 - 05:51 PM EDT / 2021.04.13 2151 UTC
Wind: from the N (360 degrees) at 8 MPH (7 KT) gusting to 18 MPH (16 KT):0
Visibility: 10 mile(s):0
Sky conditions: clear
Temperature: 81.0 F (27.2 C)
Dew Point: 57.0 F (13.9 C)
Relative Humidity: 44%
Pressure (altimeter): 29.92 in. Hg (1013 hPa)
ob: KACT 132151Z 36007G16KT 10SM CLR 27/14 A2992 RMK AO2 SLP125 T02720139
cycle: 22

Station Type Date Time Source
KACT TAF 2021/04/13 21:59 UTC NOAA

TAF
AMD KACT 132059Z 1321/1418 01008KT P6SM SCT035
FM140200 02007KT P6SM VCSH BKN030
FM140600 36007KT P6SM VCTS OVC019CB
FM140900 36009KT P6SM VCSH OVC010
FM141200 01008KT 5SM BR OVC009
FM141700 02011KT P6SM OVC010

Example: see airport list